Weather observations for the past three days for
Mountain View, Moffett Field
Imperial (Metric)
Date Time (pdt) Wind (mph) Vis. (mi.) Weather Sky Cond. Temperature (ºF) Relative Humidity Wind Chill (°F) Heat Index (°F) Pressure Precipitation (in)
Air Dwpt 6 hour altimeter (in) sea level (mb) 1 hr 3 hr 6 hr
Max. Min.
05 06:15 Calm 9.00 Fair CLR 55.4 48.2 77% 29.96 0.0
05 05:55 S 5 10.00 Fair CLR 57.2 48.2 72% 29.96 0.0
05 05:35 S 5 10.00 Fair CLR 57.2 48.2 72% 29.96 0.0
05 05:15 S 5 10.00 Fair CLR 57.2 48.2 72% 29.96 0.0
05 04:55 S 5 10.00 Fair CLR 57.2 46.4 67% 29.96 0.0
05 04:35 S 6 9.00 Fair CLR 57.2 46.4 67% 29.96 0.0
05 04:15 S 6 10.00 Fair CLR 57.2 46.4 67% 29.96 0.0
05 03:55 S 5 10.00 Fair CLR 57.2 46.4 67% 29.97 0.0
05 03:35 S 3 10.00 Fair CLR 55.4 44.6 67% 29.97 0.0
05 03:15 Calm 10.00 Fair CLR 55.4 46.4 72% 29.97 0.0
05 02:55 Calm 10.00 Fair CLR 57.2 46.4 67% 29.98 0.0
05 02:35 Calm 10.00 Fair CLR 57.2 46.4 67% 29.98 0.0
05 02:15 Calm 10.00 Fair CLR 57.2 46.4 67% 29.98 0.0
05 01:55 Calm 10.00 Fair CLR 57.2 46.4 67% 29.98 0.0
05 01:35 Calm 10.00 Fair CLR 57.2 46.4 67% 29.98 0.0
05 01:15 Calm 10.00 Fair CLR 59 48.2 68% 29.98 0.0
05 00:55 Calm 10.00 Fair CLR 59 48.2 68% 29.98 0.0
05 00:35 Calm 10.00 Fair CLR 59 48.2 68% 29.98 0.0
05 00:15 Calm 10.00 Fair CLR 59 50 72% 29.98 0.0
04 23:55 Calm 10.00 Fair CLR 60.8 48.2 63% 29.98 0.0
04 23:35 Calm 10.00 Fair CLR 60.8 48.2 63% 29.98 0.0
04 23:15 Calm 10.00 Fair CLR 60.8 50 68% 29.98 0.0
04 22:55 Calm 10.00 Fair CLR 60.8 50 68% 29.98 0.0
04 22:35 Calm 10.00 Fair CLR 60.8 50 68% 29.98 0.0
04 22:15 NW 3 10.00 Fair CLR 62.6 50 64% 29.98 0.0
04 21:55 NW 5 9.00 Fair CLR 62.6 50 64% 29.98 0.0
04 21:35 NW 6 G 12 10.00 Fair CLR 62.6 50 64% 29.98 0.0
04 21:15 N 7 10.00 Fair CLR 62.6 51.8 68% 29.97 0.0
04 20:55 NW 10 9.00 Fair CLR 62.6 51.8 68% 29.97 0.0
04 20:35 N 7 10.00 Fair CLR 64.4 50 60% 29.96 0.0
04 20:15 NW 7 10.00 Fair CLR 64.4 50 60% 29.95 0.0
04 19:55 NW 9 10.00 Fair CLR 66.2 51.8 60% 29.94 0.0
04 19:35 NW 9 9.00 Fair CLR 66.2 50 56% 29.94 0.0
04 19:15 N 14 10.00 Fair CLR 68 51.8 56% 29.94 0.0
04 18:55 N 14 9.00 Fair CLR 68 53.6 60% 29.94 0.0
04 18:35 NW 15 9.00 Fair CLR 68 53.6 60% 29.94 0.0
04 18:15 NW 15 10.00 Fair CLR 69.8 53.6 57% 29.94 0.0
04 17:55 N 15 10.00 Fair CLR 69.8 51.8 53% 29.93 0.0
04 17:35 N 14 10.00 Fair CLR 71.6 50 47% 29.94 0.0
04 17:15 N 13 10.00 Fair CLR 71.6 48.2 44% 29.93 0.0
04 16:55 N 13 G 20 10.00 Fair CLR 71.6 50 47% 29.94 0.0
04 16:35 N 14 G 20 10.00 Fair CLR 71.6 50 47% 29.94 0.0
04 16:15 N 15 9.00 Fair CLR 71.6 48.2 44% 29.94 0.0
04 15:55 N 16 10.00 Fair CLR 71.6 48.2 44% 29.94 0.0
04 15:35 N 17 10.00 Fair CLR 71.6 48.2 44% 29.95 0.0
04 15:15 N 17 10.00 Fair CLR 71.6 50 47% 29.95 0.0
04 14:55 N 16 10.00 Fair CLR 71.6 50 47% 29.95 0.0
04 14:30 N 14 10.00 Fair CLR 71.6 48.2 44% 29.95 0.0
04 14:15 N 12 10.00 Fair CLR 71.6 48.2 44% 29.95 0.0
04 13:55 N 12 9.00 Fair CLR 71.6 48.2 44% 29.95 0.0
04 13:35 N 12 10.00 Fair CLR 71.6 50 47% 29.95 0.0
04 13:15 N 9 G 15 9.00 Fair CLR 71.6 50 47% 29.95 0.0
04 12:55 N 10 9.00 Fair CLR 71.6 51.8 50% 29.95 0.0
04 12:30 NE 8 10.00 Fair CLR 69.8 51.8 53% 29.96 0.0
04 12:15 N 9 10.00 Fair CLR 69.8 51.8 53% 29.96 0.0
04 11:55 N 8 9.00 Fair CLR 69.8 51.8 53% 29.96 0.0
04 11:35 N 8 10.00 Fair CLR 68 51.8 56% 29.96 0.0
04 11:15 N 8 9.00 Fair CLR 68 51.8 56% 29.97 0.0
04 10:55 Vrbl 6 9.00 Fair CLR 68 53.6 60% 29.97 0.0
04 10:35 Vrbl 6 10.00 Fair CLR 66.2 53.6 64% 29.97 0.0
04 10:15 Calm 9.00 Fair CLR 66.2 55.4 68% 29.97 0.0
04 09:55 NE 6 9.00 Fair CLR 66.2 55.4 68% 29.96 0.0
04 09:35 Calm 9.00 Partly Cloudy FEW019 SCT026 64.4 55.4 73% 29.96 0.0
04 09:15 Calm 9.00 Mostly Cloudy BKN017 BKN026 66.2 57.2 73% 29.95 0.0
04 08:50 Calm 9.00 A Few Clouds FEW018 64.4 59 83% 29.95 0.0
04 08:35 Calm 9.00 Fair CLR 64.4 59 83% 29.95 0.0
04 08:15 Calm 9.00 Fair CLR 62.6 59 88% 29.95 0.0
04 07:55 Calm 9.00 Fair CLR 60.8 59 94% 29.94 0.0
04 07:35 Calm 7.00 Fair CLR 59 59 100% 29.94 0.0
04 07:15 Calm 7.00 Fair CLR 59 59 100% 29.93 0.0
04 06:55 Calm 7.00 Fair CLR 59 59 100% 29.92 0.0
04 06:35 Calm 7.00 Fair CLR 59 59 100% 29.92 0.0
04 06:15 Calm 8.00 Fair CLR 59 57.2 94% 29.92 0.0
04 05:55 Calm 8.00 A Few Clouds FEW029 60.8 59 94% 29.91 0.0
04 05:35 Calm 9.00 A Few Clouds FEW030 60.8 57.2 88% 29.91 0.0
04 05:10 Calm 8.00 Fair CLR 60.8 59 94% 29.92 0.0
04 04:55 Calm 9.00 Fair CLR 60.8 57.2 88% 29.91 0.0
04 04:35 Calm 9.00 Fair CLR 60.8 57.2 88% 29.91 0.0
04 04:15 Calm 9.00 Fair CLR 60.8 57.2 88% 29.91 0.0
04 03:55 Calm 9.00 Mostly Cloudy BKN047 BKN055 60.8 57.2 88% 29.91 0.0
04 03:35 W 3 9.00 Overcast BKN042 OVC048 62.6 57.2 83% 29.9 0.0
04 03:15 W 3 9.00 Overcast OVC040 62.6 59 88% 29.9 0.0
04 02:55 NW 5 9.00 Overcast FEW022 OVC040 62.6 59 88% 29.9 0.0
04 02:35 N 7 9.00 Overcast OVC039 62.6 59 88% 29.9 0.0
04 02:15 Calm 8.00 Overcast FEW029 OVC039 62.6 59 88% 29.9 0.0
04 01:55 Calm 6.00 Fog/Mist BKN028 BKN038 OVC070 60.8 59 94% 29.9 0.0
04 01:30 Calm 1.75 Fog/Mist BKN024 BKN031 OVC055 60.8 59 94% 29.9 0.0
04 01:15 Calm 1.75 Fog/Mist SCT023 BKN029 OVC050 60.8 59 94% 29.9 0.0
04 00:55 Calm 2.50 Light Rain Fog/Mist FEW018 OVC025 60.8 59 94% 29.9 0.0 0.01
04 00:35 Calm 8.00 Overcast SCT023 BKN028 OVC032 60.8 59 94% 29.89 0.0
04 00:15 Calm 5.00 Fog/Mist BKN022 OVC029 60.8 59 94% 29.9 0.0
03 23:55 Vrbl 6 2.00 Light Drizzle Fog/Mist FEW008 SCT015 BKN021 60.8 59 94% 29.9 0.0 0.02
03 23:35 NW 7 2.00 Light Rain Fog/Mist SCT008 OVC018 60.8 59 94% 29.9 0.0
03 23:15 NW 9 2.50 Fog/Mist FEW007 BKN014 OVC018 60.8 59 94% 29.89 0.0
03 22:55 NW 10 G 21 2.00 Light Rain Fog/Mist SCT007 BKN013 OVC034 62.6 59 88% 29.89 0.0
03 22:35 N 12 9.00 Overcast FEW007 OVC033 64.4 60.8 88% 29.88 0.0
03 22:15 N 13 9.00 Overcast FEW010 BKN032 OVC043 64.4 60.8 88% 29.89 0.0
03 21:50 N 14 10.00 Overcast FEW010 BKN037 OVC044 66.2 60.8 83% 29.89 0.0
03 21:15 W 7 10.00 Overcast OVC055 69.8 59 69% 29.88 0.0
03 20:55 W 8 10.00 Overcast OVC060 69.8 59 69% 29.88 0.0
03 20:35 W 8 10.00 Overcast OVC060 69.8 59 69% 29.87 0.0
03 20:15 W 6 10.00 Overcast OVC060 69.8 59 69% 29.87 0.0
03 19:50 W 8 10.00 Overcast SCT050 BKN070 OVC090 69.8 59 69% 29.86 0.0
03 19:35 W 8 G 14 10.00 Overcast BKN050 OVC090 69.8 59 69% 29.86 0.0
03 19:15 W 12 10.00 Overcast BKN050 OVC085 71.6 59 65% 29.87 0.0
03 18:55 W 12 10.00 Overcast FEW055 OVC085 71.6 59 65% 29.87 0.0
03 18:35 W 14 G 21 10.00 Overcast SCT050 OVC085 71.6 59 65% 29.87 0.0
03 18:15 W 15 G 22 10.00 Overcast OVC050 71.6 59 65% 29.86 0.0
03 17:55 W 14 10.00 Overcast BKN050 OVC060 73.4 57.2 57% 29.87 0.0
03 17:35 W 13 G 23 10.00 Overcast BKN050 OVC060 73.4 57.2 57% 29.87 0.0
03 17:15 W 14 G 21 10.00 Mostly Cloudy SCT050 BKN060 73.4 57.2 57% 29.87 0.0
03 16:55 W 13 G 22 10.00 Fair CLR 75.2 57.2 54% 78 29.87 0.0
03 16:35 W 13 G 21 10.00 Fair CLR 75.2 57.2 54% 78 29.87 0.0
03 16:15 W 14 G 23 10.00 A Few Clouds FEW110 78.8 57.2 48% 80 29.87 0.0
03 15:55 W 12 10.00 Mostly Cloudy BKN110 78.8 57.2 48% 80 29.88 0.0
03 15:35 NW 10 G 17 10.00 Partly Cloudy FEW050 SCT120 77 57.2 51% 79 29.89 0.0
03 15:15 NW 8 10.00 Mostly Cloudy BKN050 BKN120 77 57.2 51% 79 29.9 0.0
03 14:55 N 12 G 18 10.00 Mostly Cloudy SCT050 BKN110 75.2 59 57% 78 29.91 0.0
03 14:35 N 14 10.00 Mostly Cloudy FEW050 BKN120 75.2 57.2 54% 78 29.91 0.0
03 14:15 N 9 10.00 Mostly Cloudy BKN120 75.2 57.2 54% 78 29.92 0.0
03 13:55 N 9 10.00 Mostly Cloudy BKN120 75.2 57.2 54% 78 29.92 0.0
03 13:35 N 10 10.00 Partly Cloudy FEW070 SCT120 75.2 55.4 50% 78 29.93 0.0
03 13:15 N 10 10.00 Mostly Cloudy FEW070 BKN120 75.2 57.2 54% 78 29.93 0.0
03 12:55 N 13 10.00 Mostly Cloudy SCT041 BKN120 75.2 55.4 50% 78 29.94 0.0
03 12:35 N 8 10.00 Overcast OVC042 73.4 55.4 53% 29.94 0.0
03 12:15 Vrbl 5 9.00 Overcast BKN043 OVC120 75.2 55.4 50% 78 29.95 0.0
03 11:55 Calm 10.00 Mostly Cloudy BKN120 75.2 53.6 47% 78 29.95 0.0
03 11:35 Calm 9.00 Partly Cloudy SCT120 73.4 53.6 50% 29.96 0.0
03 11:15 Calm 10.00 Mostly Cloudy BKN120 73.4 53.6 50% 29.96 0.0
03 10:55 Vrbl 5 10.00 Mostly Cloudy BKN120 73.4 53.6 50% 29.96 0.0
03 10:35 Calm 10.00 Mostly Cloudy BKN120 69.8 53.6 57% 29.97 0.0
03 10:15 E 3 10.00 Mostly Cloudy BKN120 68 53.6 60% 29.98 0.0
03 09:55 SE 5 10.00 Mostly Cloudy BKN120 68 53.6 60% 29.98 0.0
03 09:35 Vrbl 5 10.00 Mostly Cloudy BKN120 66.2 55.4 68% 29.99 0.0
03 09:15 SE 7 10.00 A Few Clouds FEW120 66.2 55.4 68% 29.98 0.0
03 08:55 SE 6 10.00 Fair CLR 64.4 55.4 73% 29.99 0.0
03 08:35 SE 6 9.00 Fair CLR 62.6 53.6 73% 29.99 0.0
03 08:10 S 5 9.00 Fair CLR 62.6 51.8 68% 29.99 0.0
03 07:55 S 6 10.00 Fair CLR 60.8 51.8 72% 29.99 0.0
03 07:35 S 5 9.00 Fair CLR 59 51.8 77% 29.99 0.0
03 07:15 S 5 9.00 Fair CLR 59 51.8 77% 29.99 0.0
03 06:55 SE 5 10.00 Fair CLR 57.2 51.8 82% 29.99 0.0
03 06:35 Calm 9.00 Fair CLR 57.2 51.8 82% 29.99 0.0
03 06:15 Calm 10.00 Fair CLR 57.2 51.8 82% 29.98 0.0
03 05:55 Calm 10.00 Fair CLR 57.2 51.8 82% 29.99 0.0
03 05:35 Calm 10.00 Fair CLR 59 51.8 77% 29.99 0.0
03 05:15 Calm 10.00 Fair CLR 59 51.8 77% 29.99 0.0
03 04:55 Calm 10.00 Fair CLR 59 53.6 82% 29.99 0.0
03 04:35 Calm 10.00 Fair CLR 57.2 51.8 82% 29.99 0.0
03 04:15 Calm 10.00 Fair CLR 59 53.6 82% 30 0.0
03 03:55 Calm 10.00 Fair CLR 59 53.6 82% 30.01 0.0
03 03:35 Calm 10.00 Fair CLR 59 53.6 82% 30.01 0.0
03 03:15 Calm 10.00 Fair CLR 59 53.6 82% 30.01 0.0
03 02:55 S 3 10.00 Fair CLR 60.8 53.6 77% 30.01 0.0
03 02:30 Calm 10.00 Fair CLR 60.8 53.6 77% 30.01 0.0
03 02:15 S 5 10.00 Fair CLR 60.8 53.6 77% 30.02 0.0
03 01:55 S 3 9.00 Fair CLR 60.8 55.4 83% 30.02 0.0
03 01:35 S 3 9.00 Fair CLR 60.8 55.4 83% 30.02 0.0
03 01:15 Calm 9.00 Fair CLR 60.8 55.4 83% 30.02 0.0
03 00:55 S 3 9.00 Fair CLR 60.8 55.4 83% 30.02 0.0
03 00:30 Calm 10.00 Fair CLR 60.8 55.4 83% 30.02 0.0
03 00:15 Calm 10.00 Fair CLR 60.8 55.4 83% 30.02 0.0
02 23:55 NW 5 9.00 Fair CLR 60.8 55.4 83% 30.02 0.0
02 23:35 N 6 10.00 Fair CLR 62.6 55.4 77% 30.02 0.0
02 23:15 N 5 10.00 Fair CLR 62.6 55.4 77% 30.02 0.0
02 22:55 N 5 10.00 Fair CLR 62.6 55.4 77% 30.03 0.0
02 22:35 NW 5 10.00 Fair CLR 62.6 55.4 77% 30.03 0.0
02 22:15 NW 3 10.00 Fair CLR 62.6 53.6 73% 30.03 0.0
02 21:55 NW 6 10.00 Fair CLR 64.4 53.6 68% 30.03 0.0
02 21:35 N 8 10.00 Fair CLR 64.4 53.6 68% 30.03 0.0
02 21:15 N 8 10.00 Fair CLR 64.4 55.4 73% 30.02 0.0
02 20:55 N 6 10.00 Fair CLR 64.4 55.4 73% 30.01 0.0
02 20:35 NW 5 10.00 A Few Clouds FEW038 64.4 53.6 68% 30.01 0.0
02 20:15 NW 6 10.00 Fair CLR 66.2 53.6 64% 30.01 0.0
02 19:55 N 9 10.00 Fair CLR 66.2 53.6 64% 30 0.0
02 19:35 NW 10 10.00 Fair CLR 66.2 53.6 64% 30 0.0
02 19:15 N 13 10.00 Fair CLR 68 51.8 56% 29.99 0.0
02 18:55 NW 7 10.00 Fair CLR 71.6 48.2 44% 30 0.0
02 18:35 NW 7 G 15 10.00 Fair CLR 71.6 51.8 50% 29.99 0.0
02 18:15 Vrbl 7 G 18 10.00 Fair CLR 71.6 51.8 50% 29.99 0.0
02 17:55 N 18 10.00 Fair CLR 71.6 55.4 57% 29.99 0.0
02 17:35 N 16 G 22 10.00 Fair CLR 73.4 55.4 53% 29.99 0.0
02 17:15 NW 9 G 17 10.00 Fair CLR 73.4 53.6 50% 29.99 0.0
02 16:55 NW 14 G 21 10.00 Fair CLR 73.4 55.4 53% 29.99 0.0
02 16:35 NW 17 10.00 Fair CLR 73.4 55.4 53% 29.99 0.0
02 16:15 N 18 9.00 A Few Clouds FEW048 FEW055 75.2 57.2 54% 78 29.99 0.0
02 15:55 N 16 10.00 Mostly Cloudy SCT048 BKN055 75.2 57.2 54% 78 30 0.0
02 15:35 N 17 G 25 10.00 Mostly Cloudy BKN048 BKN060 73.4 57.2 57% 30.01 0.0
02 15:15 NW 12 10.00 Overcast BKN048 OVC055 75.2 57.2 54% 78 30 0.0
02 14:55 NW 6 10.00 Mostly Cloudy SCT050 BKN055 77 57.2 51% 79 30.01 0.0
02 14:35 Vrbl 6 G 15 10.00 Mostly Cloudy FEW040 SCT048 BKN055 77 53.6 44% 78 30.02 0.0
02 14:15 NW 8 10.00 Mostly Cloudy BKN040 BKN049 75.2 57.2 54% 78 30.02 0.0
02 13:55 N 8 G 15 10.00 Overcast BKN043 BKN050 OVC055 75.2 57.2 54% 78 30.03 0.0
02 13:35 N 10 9.00 Overcast BKN044 BKN055 OVC065 73.4 57.2 57% 30.03 0.0
02 13:15 N 12 G 20 10.00 Overcast BKN044 BKN049 OVC060 73.4 57.2 57% 30.04 0.0
02 12:55 N 7 10.00 Overcast BKN045 OVC060 73.4 55.4 53% 30.04 0.0
02 12:35 N 6 10.00 Overcast BKN044 OVC050 73.4 55.4 53% 30.04 0.0
02 12:15 NW 6 10.00 Overcast OVC041 73.4 55.4 53% 30.04 0.0
02 11:55 N 5 10.00 Overcast OVC039 73.4 55.4 53% 30.04 0.0
02 11:35 Vrbl 6 G 14 9.00 Mostly Cloudy BKN039 BKN045 73.4 55.4 53% 30.05 0.0
02 11:15 SE 6 G 14 10.00 Partly Cloudy SCT038 73.4 55.4 53% 30.04 0.0
02 10:55 S 8 10.00 Mostly Cloudy BKN037 BKN070 73.4 55.4 53% 30.04 0.0
02 10:35 Vrbl 3 10.00 Partly Cloudy FEW036 SCT070 71.6 53.6 53% 30.04 0.0
02 10:15 SE 6 9.00 Mostly Cloudy FEW036 BKN065 71.6 55.4 57% 30.04 0.0
02 09:55 Vrbl 5 10.00 Overcast FEW034 OVC065 68 53.6 60% 30.05 0.0
02 09:30 SE 6 10.00 Mostly Cloudy BKN065 66.2 53.6 64% 30.04 0.0
02 09:15 SE 6 10.00 Mostly Cloudy SCT060 BKN070 64.4 53.6 68% 30.04 0.0
02 08:55 SE 6 10.00 Mostly Cloudy BKN065 64.4 53.6 68% 30.05 0.0
02 08:35 SE 3 10.00 Overcast BKN060 OVC070 62.6 53.6 73% 30.05 0.0
02 08:15 S 6 10.00 Overcast OVC060 60.8 53.6 77% 30.04 0.0
02 07:55 SE 6 10.00 Overcast OVC055 60.8 51.8 72% 30.03 0.0
02 07:35 S 5 10.00 Overcast OVC055 60.8 51.8 72% 30.04 0.0
02 07:15 SE 6 10.00 Overcast OVC055 60.8 51.8 72% 30.03 0.0
02 06:55 SE 6 10.00 Overcast OVC050 60.8 51.8 72% 30.02 0.0
02 06:35 SE 6 10.00 Overcast BKN050 OVC065 60.8 51.8 72% 30.02 0.0
Date Time (pdt) Wind (mph) Vis. (mi.) Weather Sky Cond. Air Dwpt Max. Min. Relative Humidity Wind Chill (°F) Heat Index (°F) altimeter (in) sea level (mb) 1 hr 3 hr 6 hr
6 hour
Temperature (ºF) Pressure Precipitation (in)